Time;durP1;ratioP1;P1;durP2;ratioP2;P2;SDS_P1;SDS_P2;PMS_P1;PMS_P2;Temp;Humidity;BMP_temperature;BMP_pressure;BME280_temperature;BME280_humidity;BME280_pressure;Samples;Min_cycle;Max_cycle;Signal;HPM_P1;HPM_P2
2022/09/12 00:01:42;;;;;;;12.98;11.68;;;;;;;13.20;92.14;101658.97;5051714;28;20037;-49
2022/09/12 00:04:09;;;;;;;14.23;12.82;;;;;;;13.14;92.57;101660.31;5052176;28;20037;-48
2022/09/12 00:06:36;;;;;;;15.02;13.38;;;;;;;13.13;92.93;101656.75;5051954;28;20043;-48
2022/09/12 00:09:06;;;;;;;14.52;12.95;;;;;;;13.13;93.17;101651.44;5042684;28;20064;-48
2022/09/12 00:11:35;;;;;;;14.77;13.13;;;;;;;13.09;93.50;101654.44;5051332;28;20044;-48
2022/09/12 00:14:01;;;;;;;17.55;13.45;;;;;;;13.09;93.19;101651.75;5047219;28;20021;-50
2022/09/12 00:16:29;;;;;;;15.43;13.57;;;;;;;13.06;93.48;101650.19;5048786;28;20033;-48
2022/09/12 00:18:55;;;;;;;17.52;14.15;;;;;;;13.06;94.19;101650.19;5052107;28;20125;-47
2022/09/12 00:21:21;;;;;;;16.63;14.68;;;;;;;13.06;94.05;101642.19;5039966;28;20447;-49
2022/09/12 00:23:47;;;;;;;16.02;14.32;;;;;;;13.05;94.13;101648.47;5052040;28;20037;-48
2022/09/12 00:26:13;;;;;;;17.65;15.85;;;;;;;13.01;94.39;101652.34;5049912;28;20460;-47
2022/09/12 00:28:40;;;;;;;16.55;14.77;;;;;;;13.04;93.92;101648.59;5043723;28;20033;-49
2022/09/12 00:31:08;;;;;;;17.45;15.00;;;;;;;12.98;94.52;101641.06;5055376;28;20458;-48
2022/09/12 00:33:34;;;;;;;19.42;16.30;;;;;;;12.99;94.03;101645.41;5049188;28;20033;-48
2022/09/12 00:36:04;;;;;;;18.38;14.65;;;;;;;12.89;93.36;101629.25;5055439;28;20386;-48
2022/09/12 00:38:29;;;;;;;16.15;13.98;;;;;;;12.95;93.56;101629.63;5055600;28;20219;-48
2022/09/12 00:40:55;;;;;;;16.35;12.90;;;;;;;12.91;93.48;101638.84;5051522;28;20536;-47
2022/09/12 00:43:26;;;;;;;17.27;13.90;;;;;;;12.88;93.11;101630.22;5055380;28;20025;-47
2022/09/12 00:45:53;;;;;;;16.42;14.07;;;;;;;12.82;92.79;101628.00;5055155;28;20017;-47
2022/09/12 00:48:25;;;;;;;14.25;12.70;;;;;;;12.82;93.64;101628.84;5054394;28;20021;-48
2022/09/12 00:50:50;;;;;;;15.82;14.23;;;;;;;12.80;93.60;101627.28;5054750;28;20029;-48
2022/09/12 00:53:16;;;;;;;16.10;14.40;;;;;;;12.80;94.31;101628.13;5054458;28;20036;-47
2022/09/12 00:55:49;;;;;;;15.80;14.10;;;;;;;12.78;92.91;101630.88;5055076;28;20527;-47
2022/09/12 00:58:17;;;;;;;15.80;14.05;;;;;;;12.74;93.32;101626.75;5055273;28;20029;-48
2022/09/12 01:00:42;;;;;;;15.45;13.85;;;;;;;12.73;92.60;101626.88;5042492;28;20463;-47
2022/09/12 01:03:13;;;;;;;16.90;13.93;;;;;;;12.69;93.29;101617.38;5051044;28;20040;-47
2022/09/12 01:05:43;;;;;;;14.75;13.18;;;;;;;12.65;93.52;101613.25;5054992;28;20021;-47
2022/09/12 01:08:09;;;;;;;15.27;13.68;;;;;;;12.65;93.08;101611.44;5048693;28;20554;-48
2022/09/12 01:10:37;;;;;;;17.45;13.68;;;;;;;12.59;93.08;101599.41;5054938;28;20060;-47
2022/09/12 01:13:05;;;;;;;13.98;12.43;;;;;;;12.58;92.00;101603.03;5054719;28;20033;-47
2022/09/12 01:15:30;;;;;;;15.73;14.02;;;;;;;12.56;92.91;101604.97;5054868;28;20032;-47
2022/09/12 01:18:07;;;;;;;15.57;14.00;;;;;;;12.56;93.50;101601.47;5042061;28;20025;-47
2022/09/12 01:20:49;;;;;;;15.98;13.10;;;;;;;12.56;93.12;101602.28;5054680;28;20025;-48
2022/09/12 01:23:23;;;;;;;15.27;13.30;;;;;;;12.54;92.56;101596.25;5054032;28;20017;-47
2022/09/12 01:26:19;;;;;;;16.02;13.40;;;;;;;12.55;92.39;101592.59;5054532;28;20118;-47
2022/09/12 01:29:24;;;;;;;19.08;14.23;;;;;;;12.53;93.16;101594.53;5053059;28;20475;-47
2022/09/12 01:32:02;;;;;;;18.38;15.73;;;;;;;12.46;94.08;101595.94;5044319;28;20061;-47
2022/09/12 01:34:42;;;;;;;17.80;15.90;;;;;;;12.44;93.91;101599.66;5054565;28;20082;-48
2022/09/12 01:37:39;;;;;;;20.08;17.00;;;;;;;12.42;93.16;101585.63;5051710;28;20036;-47
2022/09/12 01:40:28;;;;;;;18.35;15.60;;;;;;;12.42;93.79;101580.28;5053404;28;20023;-47
2022/09/12 01:43:17;;;;;;;19.60;15.85;;;;;;;12.43;94.50;101593.50;5054033;28;20534;-48
2022/09/12 01:45:51;;;;;;;21.05;16.63;;;;;;;12.42;94.49;101594.44;5046461;28;20418;-49
2022/09/12 01:48:28;;;;;;;17.90;16.02;;;;;;;12.40;94.34;101597.22;5054335;28;20436;-46
2022/09/12 01:51:19;;;;;;;18.40;16.13;;;;;;;12.40;93.81;101585.72;5053824;28;20108;-49
2022/09/12 01:53:50;;;;;;;20.90;15.75;;;;;;;12.33;93.67;101584.47;5054098;28;20030;-47
2022/09/12 01:56:27;;;;;;;17.80;15.70;;;;;;;12.31;94.55;101583.75;5051695;28;20032;-48
2022/09/12 01:59:07;;;;;;;17.33;15.45;;;;;;;12.30;93.55;101574.03;5047448;28;20029;-48
2022/09/12 02:01:40;;;;;;;18.20;16.25;;;;;;;12.26;94.48;101568.09;5042281;28;20028;-48
2022/09/12 02:04:19;;;;;;;20.42;17.02;;;;;;;12.27;95.06;101564.44;5054174;28;20403;-48
2022/09/12 02:07:05;;;;;;;20.88;16.83;;;;;;;12.26;94.83;101554.75;5048508;28;20025;-47
2022/09/12 02:09:59;;;;;;;18.30;16.30;;;;;;;12.26;94.15;101562.75;5041487;28;20076;-46
2022/09/12 02:12:35;;;;;;;17.80;15.32;;;;;;;12.25;94.58;101552.22;5051687;28;20036;-48
2022/09/12 02:15:06;;;;;;;19.85;15.73;;;;;;;12.21;94.50;101556.91;5053601;28;20021;-49
2022/09/12 02:17:37;;;;;;;18.50;16.45;;;;;;;12.15;94.55;101554.69;5049241;28;20385;-47
2022/09/12 02:20:11;;;;;;;19.60;16.17;;;;;;;12.15;94.61;101558.19;5053787;28;20060;-49
2022/09/12 02:22:37;;;;;;;20.52;18.05;;;;;;;12.15;95.30;101557.34;5053521;28;20029;-47
2022/09/12 02:25:06;;;;;;;19.20;16.95;;;;;;;12.14;95.57;101560.97;5050284;28;20075;-48
2022/09/12 02:27:44;;;;;;;19.73;16.65;;;;;;;12.09;94.74;101553.31;5049160;28;20029;-46
2022/09/12 02:30:13;;;;;;;20.48;16.50;;;;;;;12.12;94.72;101558.41;5053579;28;20025;-47
2022/09/12 02:32:57;;;;;;;20.25;17.08;;;;;;;12.11;95.53;101558.53;5053228;28;20493;-47
2022/09/12 02:35:43;;;;;;;18.58;16.30;;;;;;;12.10;94.41;101563.00;5045889;28;20029;-47
2022/09/12 02:38:21;;;;;;;16.92;15.13;;;;;;;12.07;93.52;101562.38;5042954;28;20035;-46
2022/09/12 02:40:47;;;;;;;18.13;15.52;;;;;;;12.06;94.73;101555.31;5053219;28;20035;-47
2022/09/12 02:43:12;;;;;;;18.60;16.60;;;;;;;12.05;94.55;101554.50;5049622;28;20124;-47
2022/09/12 02:45:37;;;;;;;19.42;15.40;;;;;;;12.04;94.23;101552.81;5052959;28;20414;-47
2022/09/12 02:48:14;;;;;;;18.90;15.77;;;;;;;12.02;93.86;101550.25;5052866;28;20053;-46
2022/09/12 02:50:40;;;;;;;18.40;15.23;;;;;;;11.98;94.32;101546.09;5039610;28;20465;-47
2022/09/12 02:53:07;;;;;;;17.55;15.27;;;;;;;11.95;94.72;101550.78;5052833;28;20490;-47
2022/09/12 02:55:34;;;;;;;17.38;14.82;;;;;;;11.93;94.80;101545.56;5051689;28;20086;-47
2022/09/12 02:58:05;;;;;;;16.73;14.68;;;;;;;11.90;94.57;101537.75;5044777;28;20115;-47
2022/09/12 03:00:37;;;;;;;18.83;16.10;;;;;;;11.89;94.58;101538.75;5048848;28;20048;-46
2022/09/12 03:03:10;;;;;;;18.75;15.70;;;;;;;11.88;94.99;101536.19;5046487;28;20029;-46
2022/09/12 03:05:50;;;;;;;19.65;16.95;;;;;;;11.87;95.80;101535.31;5052959;28;20112;-47
2022/09/12 03:08:33;;;;;;;19.10;15.98;;;;;;;11.90;95.61;101536.91;5052603;28;20486;-46
2022/09/12 03:11:32;;;;;;;20.60;16.80;;;;;;;11.91;95.77;101534.19;5047092;28;20417;-47
2022/09/12 03:14:16;;;;;;;;;;;;;;;11.98;93.90;101529.28;5033738;28;20041;-47
2022/09/12 03:17:00;;;;;;;21.05;17.45;;;;;;;11.92;95.27;101525.22;5052525;28;19905;-47
2022/09/12 03:19:34;;;;;;;22.83;18.45;;;;;;;11.88;95.41;101534.38;5052361;28;20017;-46
2022/09/12 03:22:10;;;;;;;19.77;17.60;;;;;;;11.89;95.48;101532.53;5043283;28;20032;-47
2022/09/12 03:24:45;;;;;;;20.67;17.23;;;;;;;11.88;95.58;101521.06;5052408;28;20386;-47
2022/09/12 03:27:46;;;;;;;20.63;17.85;;;;;;;11.84;96.34;101520.44;5047662;28;20040;-47
2022/09/12 03:30:12;;;;;;;21.50;17.55;;;;;;;11.88;95.61;101538.84;5039775;28;20469;-48
2022/09/12 03:32:49;;;;;;;20.58;17.45;;;;;;;11.85;95.58;101527.44;5052430;28;20068;-46
2022/09/12 03:35:17;;;;;;;24.02;17.40;;;;;;;11.83;95.57;101517.88;5048508;28;20130;-46
2022/09/12 03:37:42;;;;;;;19.98;17.15;;;;;;;11.83;95.85;101520.53;5052170;28;20029;-47
2022/09/12 03:40:10;;;;;;;18.95;16.92;;;;;;;11.82;96.05;101518.81;5050722;28;20032;-47
2022/09/12 03:42:35;;;;;;;20.30;16.45;;;;;;;11.82;96.11;101526.81;5052241;28;20100;-47
2022/09/12 03:45:01;;;;;;;18.95;16.38;;;;;;;11.83;95.65;101523.19;5043771;28;20026;-49
2022/09/12 03:47:26;;;;;;;21.35;16.27;;;;;;;11.82;96.23;101525.03;5051901;28;20033;-47
2022/09/12 03:49:51;;;;;;;20.35;15.98;;;;;;;11.79;95.46;101519.91;5044322;28;20479;-46
2022/09/12 03:52:17;;;;;;;18.70;16.23;;;;;;;11.82;96.08;101514.38;5047186;28;20041;-47
2022/09/12 03:54:42;;;;;;;20.10;16.63;;;;;;;11.80;95.93;101507.44;5043776;28;20349;-46
2022/09/12 03:57:08;;;;;;;19.55;16.92;;;;;;;11.82;95.49;101516.16;5052205;28;20108;-46
2022/09/12 03:59:33;;;;;;;21.55;17.30;;;;;;;11.82;95.77;101516.16;5052283;28;20032;-48
2022/09/12 04:01:58;;;;;;;21.90;17.17;;;;;;;11.79;95.59;101514.59;5044060;28;20028;-46
2022/09/12 04:04:24;;;;;;;21.08;17.45;;;;;;;11.77;96.01;101500.50;5054560;28;20749;-46
2022/09/12 04:06:49;;;;;;;20.10;16.85;;;;;;;11.78;95.74;101506.72;5056091;28;20017;-47
2022/09/12 04:09:14;;;;;;;19.92;16.48;;;;;;;11.78;95.86;101501.38;5056025;28;20032;-46
2022/09/12 04:11:40;;;;;;;20.02;16.63;;;;;;;11.78;95.76;101493.41;5044543;28;20025;-46
2022/09/12 04:14:05;;;;;;;18.67;16.55;;;;;;;11.74;95.96;101492.78;5056101;28;20032;-47
2022/09/12 04:16:31;;;;;;;18.70;16.23;;;;;;;11.74;96.18;101498.09;5054123;28;20055;-49
2022/09/12 04:18:56;;;;;;;22.42;16.95;;;;;;;11.77;96.12;101499.66;5047334;28;20088;-46
2022/09/12 04:21:23;;;;;;;21.38;17.10;;;;;;;11.72;96.20;101493.81;5053092;28;20020;-46
2022/09/12 04:23:48;;;;;;;20.30;17.70;;;;;;;11.74;96.58;101499.88;5054944;28;20040;-47
2022/09/12 04:26:16;;;;;;;21.20;16.65;;;;;;;11.76;96.79;101498.81;5053338;28;20033;-47
2022/09/12 04:28:41;;;;;;;20.80;17.55;;;;;;;11.71;95.61;101486.78;5036743;28;20048;-46
2022/09/12 04:31:11;;;;;;;24.02;17.40;;;;;;;11.73;95.74;101490.22;5053522;28;20470;-46
2022/09/12 04:33:36;;;;;;;20.58;18.27;;;;;;;11.73;96.02;101490.22;5055574;28;20060;-47
2022/09/12 04:36:04;;;;;;;19.88;17.70;;;;;;;11.75;97.16;101488.28;5053802;28;20139;-47
2022/09/12 04:38:29;;;;;;;21.83;19.50;;;;;;;11.73;97.36;101479.56;5050007;28;20037;-47
2022/09/12 04:40:55;;;;;;;26.45;19.77;;;;;;;11.72;97.12;101477.88;5054138;28;20159;-48
2022/09/12 04:43:21;;;;;;;25.92;20.60;;;;;;;11.71;96.85;101485.00;5055620;28;20032;-47
2022/09/12 04:45:46;;;;;;;23.25;20.13;;;;;;;11.74;97.89;101468.81;5055308;28;20017;-47
2022/09/12 04:48:11;;;;;;;22.90;20.17;;;;;;;11.75;97.95;101477.66;5054176;28;20043;-47
2022/09/12 04:50:37;;;;;;;25.47;20.63;;;;;;;11.75;98.51;101480.31;5055375;28;20826;-47
2022/09/12 04:53:02;;;;;;;25.13;20.73;;;;;;;11.76;98.51;101482.03;5055027;28;20279;-49
2022/09/12 04:55:27;;;;;;;28.35;21.73;;;;;;;11.78;98.80;101485.41;5055064;28;20082;-49
2022/09/12 04:57:53;;;;;;;24.67;21.10;;;;;;;11.78;98.75;101480.94;5050373;28;20064;-47
2022/09/12 05:00:18;;;;;;;24.48;20.13;;;;;;;11.78;98.76;101478.28;5050506;28;20071;-48
2022/09/12 05:02:43;;;;;;;27.33;21.63;;;;;;;11.77;98.90;101481.88;5055042;28;20397;-47
2022/09/12 05:05:10;;;;;;;26.52;22.27;;;;;;;11.78;98.61;101485.41;5054366;28;20071;-47
2022/09/12 05:07:35;;;;;;;25.33;21.50;;;;;;;11.77;98.24;101476.56;5044173;28;20040;-48
2022/09/12 05:10:02;;;;;;;27.85;22.33;;;;;;;11.78;98.85;101486.25;5052183;28;20096;-50
2022/09/12 05:12:28;;;;;;;26.23;22.88;;;;;;;11.78;99.08;101486.25;5049993;28;20374;-48
2022/09/12 05:14:53;;;;;;;27.85;22.15;;;;;;;11.80;98.81;101483.50;5051914;28;20028;-48
2022/09/12 05:17:18;;;;;;;28.77;23.03;;;;;;;11.80;99.49;101494.97;5035006;28;20074;-48
2022/09/12 05:19:43;;;;;;;28.70;22.13;;;;;;;11.82;98.82;101497.53;5051780;28;20275;-46
2022/09/12 05:22:09;;;;;;;23.87;21.27;;;;;;;11.83;98.62;101488.59;5054764;28;20331;-47
2022/09/12 05:24:36;;;;;;;27.45;22.73;;;;;;;11.82;99.29;101493.09;5051159;28;20691;-46
2022/09/12 05:27:03;;;;;;;26.63;22.48;;;;;;;11.85;99.58;101498.16;5036693;28;20025;-48
2022/09/12 05:29:29;;;;;;;30.85;22.42;;;;;;;11.87;99.24;101494.53;5041946;28;20410;-48
2022/09/12 05:31:54;;;;;;;29.02;22.67;;;;;;;11.87;99.41;101492.72;5054519;28;20040;-47
2022/09/12 05:34:20;;;;;;;27.38;21.90;;;;;;;11.89;99.16;101490.81;5036620;28;20040;-48
2022/09/12 05:36:45;;;;;;;30.55;24.63;;;;;;;11.90;99.77;101486.34;5052526;28;20159;-47
2022/09/12 05:39:11;;;;;;;31.90;25.40;;;;;;;11.92;99.91;101487.94;5054172;28;20500;-48
2022/09/12 05:41:36;;;;;;;31.27;25.00;;;;;;;11.93;99.97;101484.34;5051659;28;20029;-48
2022/09/12 05:44:04;;;;;;;29.33;25.85;;;;;;;11.95;99.92;101489.56;5054010;28;20036;-48
2022/09/12 05:46:34;;;;;;;28.88;24.58;;;;;;;11.95;99.69;101490.41;5047625;28;20112;-48
2022/09/12 05:49:05;;;;;;;30.42;25.45;;;;;;;11.98;100.00;101486.69;5051591;28;20028;-48
2022/09/12 05:51:34;;;;;;;30.25;25.02;;;;;;;12.01;100.00;101494.44;5054022;28;20045;-47
2022/09/12 05:54:02;;;;;;;30.52;25.25;;;;;;;12.03;100.00;101496.03;5048089;28;20036;-46
2022/09/12 05:56:29;;;;;;;30.00;24.63;;;;;;;12.08;100.00;101492.19;5054313;28;20028;-46
2022/09/12 05:58:59;;;;;;;29.45;23.90;;;;;;;12.09;100.00;101496.53;5045028;28;20049;-45
2022/09/12 06:01:26;;;;;;;31.48;25.00;;;;;;;12.12;100.00;101499.81;5044037;28;20029;-46
2022/09/12 06:03:54;;;;;;;29.33;24.73;;;;;;;12.15;100.00;101507.59;5053674;28;20127;-48
2022/09/12 06:06:21;;;;;;;30.95;24.08;;;;;;;12.19;100.00;101514.41;5053792;28;20035;-46
2022/09/12 06:08:49;;;;;;;32.42;25.17;;;;;;;12.18;100.00;101512.69;5048378;28;20083;-46
2022/09/12 06:11:24;;;;;;;30.17;24.13;;;;;;;12.25;100.00;101515.75;5041677;28;20079;-46
2022/09/12 06:13:49;;;;;;;28.83;23.27;;;;;;;12.28;100.00;101515.53;5051538;28;20033;-46
2022/09/12 06:16:20;;;;;;;30.60;24.17;;;;;;;12.22;100.00;101505.31;5048407;28;20447;-45
2022/09/12 06:18:48;;;;;;;31.55;25.60;;;;;;;12.31;100.00;101506.50;5045265;28;20073;-45
2022/09/12 06:21:13;;;;;;;30.45;25.23;;;;;;;12.30;100.00;101505.63;5047184;28;20042;-46
2022/09/12 06:23:39;;;;;;;29.65;25.75;;;;;;;12.33;100.00;101499.22;5042374;28;20036;-46
2022/09/12 06:26:06;;;;;;;29.92;25.80;;;;;;;12.36;100.00;101501.69;5048651;28;20033;-46
2022/09/12 06:28:33;;;;;;;30.63;25.60;;;;;;;12.39;100.00;101502.28;5037117;28;20378;-46
2022/09/12 06:31:12;;;;;;;31.98;24.70;;;;;;;12.40;100.00;101495.13;5034077;28;20458;-45
2022/09/12 06:33:40;;;;;;;30.42;25.23;;;;;;;12.43;100.00;101500.25;5031078;28;20072;-46
2022/09/12 06:36:11;;;;;;;28.35;24.48;;;;;;;12.46;100.00;101501.84;5031693;28;20049;-45
2022/09/12 06:38:38;;;;;;;29.05;25.20;;;;;;;12.50;100.00;101492.66;5031211;28;20110;-45
2022/09/12 06:41:08;;;;;;;29.10;24.88;;;;;;;12.54;100.00;101496.78;5035282;28;20042;-45
2022/09/12 06:43:34;;;;;;;30.83;25.70;;;;;;;12.59;100.00;101499.97;5041130;28;20115;-45
2022/09/12 06:46:00;;;;;;;29.90;24.83;;;;;;;12.65;100.00;101498.66;5048444;28;20086;-46
2022/09/12 06:48:25;;;;;;;28.63;24.50;;;;;;;12.71;100.00;101501.69;5047736;28;20112;-46
2022/09/12 06:51:18;;;;;;;28.25;24.73;;;;;;;12.76;100.00;101496.88;5048610;28;20040;-47
2022/09/12 06:53:45;;;;;;;30.13;26.02;;;;;;;12.84;100.00;101493.63;5034037;28;20044;-48
2022/09/12 06:56:12;;;;;;;28.10;24.23;;;;;;;12.90;100.00;101501.16;5046695;28;20040;-47
2022/09/12 06:58:38;;;;;;;27.95;23.90;;;;;;;12.96;100.00;101487.34;5051888;28;20029;-47
2022/09/12 07:01:04;;;;;;;29.35;24.35;;;;;;;13.02;100.00;101493.19;5041865;28;20045;-45
2022/09/12 07:03:31;;;;;;;30.35;25.15;;;;;;;13.06;100.00;101494.66;5042149;28;20035;-45
2022/09/12 07:06:01;;;;;;;28.23;23.27;;;;;;;13.08;100.00;101496.22;5042695;28;20386;-45
2022/09/12 07:08:30;;;;;;;31.83;24.83;;;;;;;13.14;100.00;101498.44;5046494;28;20041;-45
2022/09/12 07:10:57;;;;;;;28.73;23.20;;;;;;;13.20;100.00;101496.25;5033147;28;20115;-45
2022/09/12 07:13:23;;;;;;;29.70;24.65;;;;;;;13.26;100.00;101490.47;5036780;28;20025;-46
2022/09/12 07:15:48;;;;;;;28.25;24.08;;;;;;;13.36;100.00;101503.97;5046052;28;20056;-44
2022/09/12 07:18:13;;;;;;;29.60;24.33;;;;;;;13.46;100.00;101502.28;5046068;28;20384;-45
2022/09/12 07:20:39;;;;;;;32.30;24.93;;;;;;;13.57;100.00;101488.06;5046301;28;20487;-45
2022/09/12 07:23:04;;;;;;;35.38;25.77;;;;;;;13.66;100.00;101490.88;5039025;28;20295;-45
2022/09/12 07:25:30;;;;;;;29.37;24.80;;;;;;;13.85;100.00;101495.56;5047894;28;20043;-50
2022/09/12 07:27:55;;;;;;;30.10;24.40;;;;;;;14.04;100.00;101483.44;5069030;28;20287;-50
2022/09/12 07:30:21;;;;;;;30.10;23.90;;;;;;;14.17;100.00;101480.59;5067293;28;20309;-49
2022/09/12 07:32:46;;;;;;;27.08;24.05;;;;;;;14.36;100.00;101486.13;5069614;28;20037;-49
2022/09/12 07:35:12;;;;;;;25.00;22.35;;;;;;;14.55;99.86;101485.44;5071710;28;20029;-47
2022/09/12 07:37:37;;;;;;;26.35;23.02;;;;;;;14.79;99.23;101476.41;5057979;28;20037;-49
2022/09/12 07:40:03;;;;;;;26.05;21.63;;;;;;;14.92;98.04;101474.38;5072898;28;20036;-52
2022/09/12 07:42:28;;;;;;;25.42;22.17;;;;;;;15.12;97.79;101488.72;5069179;28;20020;-49
2022/09/12 07:44:53;;;;;;;23.80;20.87;;;;;;;15.38;96.31;101485.63;5075880;28;20017;-49
2022/09/12 07:47:18;;;;;;;24.80;21.80;;;;;;;15.62;96.23;101489.78;5074397;28;20355;-48
2022/09/12 07:49:44;;;;;;;24.50;20.20;;;;;;;15.92;95.46;101491.66;5070971;28;20325;-49
2022/09/12 07:52:09;;;;;;;23.63;20.52;;;;;;;16.17;94.34;101490.28;5075080;28;20295;-51
2022/09/12 07:54:34;;;;;;;24.80;19.40;;;;;;;16.39;92.37;101489.19;5073174;28;20063;-51
2022/09/12 07:56:59;;;;;;;21.97;19.53;;;;;;;16.60;91.22;101496.25;5072845;28;20267;-50
2022/09/12 07:59:25;;;;;;;22.33;18.95;;;;;;;16.81;89.07;101496.94;5073727;28;20311;-51
2022/09/12 08:01:50;;;;;;;20.08;17.92;;;;;;;16.93;87.42;101494.16;5072661;28;20071;-51
2022/09/12 08:04:15;;;;;;;20.98;17.75;;;;;;;17.10;87.92;101490.75;5075868;28;20039;-50
2022/09/12 08:06:41;;;;;;;20.27;18.02;;;;;;;17.22;86.05;101491.41;5055174;28;20090;-50
2022/09/12 08:09:06;;;;;;;20.83;17.65;;;;;;;17.55;86.18;101475.75;5051999;28;20112;-52
2022/09/12 08:11:32;;;;;;;20.10;17.98;;;;;;;17.75;86.22;101488.09;5054366;28;20394;-53
2022/09/12 08:13:58;;;;;;;19.42;17.33;;;;;;;18.00;82.93;101492.94;5051915;28;20155;-50
2022/09/12 08:16:29;;;;;;;18.65;16.67;;;;;;;18.21;81.99;101495.38;5038929;28;20030;-50
2022/09/12 08:18:55;;;;;;;19.05;15.43;;;;;;;18.44;81.27;101498.47;5052045;28;20025;-53
2022/09/12 08:21:24;;;;;;;21.50;16.25;;;;;;;18.61;80.44;101492.22;5051598;28;20082;-52
2022/09/12 08:23:54;;;;;;;19.27;17.20;;;;;;;18.78;81.18;101495.06;5049423;28;20021;-50
2022/09/12 08:26:19;;;;;;;17.75;15.52;;;;;;;18.96;79.30;101500.47;5045130;28;20414;-49
2022/09/12 08:28:45;;;;;;;17.23;15.52;;;;;;;19.28;79.74;101504.38;5050728;28;20103;-51
2022/09/12 08:31:13;;;;;;;18.60;16.05;;;;;;;19.38;78.00;101508.66;5050863;28;20040;-51
2022/09/12 08:33:38;;;;;;;19.63;14.95;;;;;;;19.56;77.00;101515.81;5045154;28;20036;-50
2022/09/12 08:36:11;;;;;;;16.90;15.30;;;;;;;19.72;76.86;101505.13;5051501;28;20017;-50
2022/09/12 08:38:38;;;;;;;17.38;15.13;;;;;;;20.00;77.04;101507.63;5051729;28;20025;-49
2022/09/12 08:41:27;;;;;;;17.23;14.10;;;;;;;20.25;78.24;101502.28;5044193;28;20395;-52
2022/09/12 08:44:07;;;;;;;16.10;14.32;;;;;;;20.41;76.00;101505.03;5048131;28;20039;-50
2022/09/12 08:46:41;;;;;;;16.60;14.38;;;;;;;20.72;73.66;101507.13;5051277;28;20479;-52
2022/09/12 08:49:11;;;;;;;16.55;14.85;;;;;;;20.92;72.56;101507.63;5050841;28;20025;-52
2022/09/12 08:51:38;;;;;;;16.60;13.55;;;;;;;21.13;72.17;101500.84;5049913;28;20049;-53
2022/09/12 08:54:08;;;;;;;16.27;13.75;;;;;;;21.30;70.63;101497.13;5051403;28;20089;-51
2022/09/12 08:56:36;;;;;;;16.10;13.27;;;;;;;21.57;69.51;101495.88;5052344;28;20032;-50
2022/09/12 08:59:02;;;;;;;17.70;12.65;;;;;;;21.74;69.20;101487.69;5052402;28;20047;-52
2022/09/12 09:01:34;;;;;;;18.45;12.27;;;;;;;21.89;68.97;101494.03;5049502;28;20052;-53
2022/09/12 09:04:30;;;;;;;13.82;11.52;;;;;;;22.02;70.32;101488.06;5051962;28;20021;-52
2022/09/12 09:07:36;;;;;;;12.68;10.85;;;;;;;22.18;70.48;101484.41;5053828;28;20383;-53
2022/09/12 09:10:33;;;;;;;11.10;9.50;;;;;;;22.40;69.31;101490.06;5050908;28;20375;-49
2022/09/12 09:14:46;;;;;;;12.23;9.40;;;;;;;22.67;66.57;101483.28;5061319;28;20522;-51
2022/09/12 09:16:10;;;;;;;10.70;9.10;;;;;;;22.91;65.48;101476.78;5067329;28;20101;-52
2022/09/12 09:18:36;;;;;;;12.70;8.63;;;;;;;23.19;63.30;101473.50;5077960;28;20029;-53
2022/09/12 09:21:11;;;;;;;8.77;7.88;;;;;;;23.17;65.94;101473.69;5077051;28;20067;-51
2022/09/12 09:23:41;;;;;;;8.68;7.82;;;;;;;23.41;63.10;101477.97;5071262;28;20040;-53
2022/09/12 09:26:25;;;;;;;12.52;8.10;;;;;;;23.62;63.73;101479.09;5074016;28;20063;-49
2022/09/12 09:29:16;;;;;;;10.05;7.97;;;;;;;23.78;64.44;101469.91;5067610;28;20059;-52
2022/09/12 09:31:47;;;;;;;9.60;7.78;;;;;;;23.80;61.21;101468.69;5067414;28;20029;-49
2022/09/12 09:34:24;;;;;;;9.23;8.32;;;;;;;24.07;59.97;101471.75;5074292;28;20032;-50
2022/09/12 09:37:15;;;;;;;9.75;8.07;;;;;;;24.18;62.91;101464.97;5072108;28;20589;-53
2022/09/12 09:40:05;;;;;;;10.73;7.70;;;;;;;24.28;60.40;101467.38;5071908;28;20025;-50
2022/09/12 09:42:43;;;;;;;8.20;6.53;;;;;;;24.42;59.21;101460.22;5070564;28;20017;-53
2022/09/12 09:45:18;;;;;;;8.32;6.43;;;;;;;24.49;59.34;101463.81;5074858;28;20017;-52
2022/09/12 09:48:00;;;;;;;10.32;7.80;;;;;;;24.64;59.66;101455.63;5070162;28;20033;-48
2022/09/12 09:50:26;;;;;;;8.38;6.10;;;;;;;24.92;55.53;101456.47;5072385;28;20037;-53
2022/09/12 09:52:55;;;;;;;7.65;6.82;;;;;;;25.04;53.67;101450.50;5071349;28;20045;-53
2022/09/12 09:55:26;;;;;;;7.35;6.20;;;;;;;25.21;54.65;101445.59;5074398;28;20025;-51
2022/09/12 09:57:52;;;;;;;8.73;5.90;;;;;;;25.39;53.56;101443.22;5070301;28;20038;-48
2022/09/12 10:00:25;;;;;;;7.07;5.30;;;;;;;25.26;53.04;101430.41;5072995;28;20037;-54
2022/09/12 10:02:58;;;;;;;6.03;5.40;;;;;;;25.60;53.73;101428.66;5066548;28;20020;-52
2022/09/12 10:05:23;;;;;;;7.57;6.00;;;;;;;25.67;51.26;101431.41;5074987;28;20521;-51
2022/09/12 10:07:50;;;;;;;7.53;6.03;;;;;;;25.83;50.89;101428.34;5074638;28;20029;-51
2022/09/12 10:10:18;;;;;;;8.98;6.25;;;;;;;25.86;50.09;101429.78;5072746;28;20052;-53
2022/09/12 10:12:44;;;;;;;6.90;6.23;;;;;;;26.00;52.12;101431.53;5076671;28;20039;-50
2022/09/12 10:15:21;;;;;;;7.07;6.38;;;;;;;26.12;52.57;101414.63;5077739;28;20267;-52
2022/09/12 10:17:49;;;;;;;6.20;5.60;;;;;;;26.15;50.49;101416.94;5070262;28;20029;-51
2022/09/12 10:20:38;;;;;;;9.45;6.57;;;;;;;26.25;51.98;101413.78;5066775;28;20029;-50
2022/09/12 10:23:24;;;;;;;8.27;6.15;;;;;;;26.29;53.40;101402.25;5076874;28;20025;-52
2022/09/12 10:25:55;;;;;;;7.68;5.55;;;;;;;26.18;49.63;101400.16;5077719;28;20021;-51
2022/09/12 10:28:42;;;;;;;6.15;5.53;;;;;;;26.37;51.23;101402.06;5065479;28;20029;-50
2022/09/12 10:31:12;;;;;;;5.85;5.25;;;;;;;26.17;47.51;101401.22;5077009;28;20073;-49
2022/09/12 10:33:45;;;;;;;6.57;5.45;;;;;;;26.30;49.00;101395.78;5061367;28;20017;-50
2022/09/12 10:36:10;;;;;;;7.57;5.00;;;;;;;26.55;48.51;101387.00;5057644;28;20009;-49
2022/09/12 10:38:36;;;;;;;6.95;5.28;;;;;;;26.54;48.76;101388.03;5069571;28;20020;-47
2022/09/12 10:41:10;;;;;;;6.30;4.67;;;;;;;26.51;47.81;101386.56;5077170;28;20033;-48
2022/09/12 10:43:41;;;;;;;7.03;4.25;;;;;;;26.61;46.08;101377.94;5076501;28;20342;-50
2022/09/12 10:46:18;;;;;;;5.15;3.83;;;;;;;26.61;46.55;101379.84;5068071;28;20033;-48
2022/09/12 10:48:48;;;;;;;4.32;3.65;;;;;;;26.77;46.92;101376.72;5066173;28;20017;-50
2022/09/12 10:51:22;;;;;;;5.53;3.72;;;;;;;26.77;47.95;101372.09;5064882;28;20064;-48
2022/09/12 10:53:49;;;;;;;4.57;3.95;;;;;;;26.88;45.15;101364.31;5074487;28;20016;-48
2022/09/12 10:56:21;;;;;;;4.82;3.75;;;;;;;26.90;44.63;101363.06;5074955;28;20033;-48
2022/09/12 10:59:06;;;;;;;4.63;3.33;;;;;;;27.14;47.88;101350.59;5077361;28;20066;-50
2022/09/12 11:01:31;;;;;;;3.58;3.28;;;;;;;27.18;44.73;101350.16;5075012;28;20029;-48
2022/09/12 11:04:26;;;;;;;5.50;3.57;;;;;;;27.39;47.61;101347.16;5062101;28;20044;-48
2022/09/12 11:07:10;;;;;;;3.35;3.10;;;;;;;27.35;44.35;101348.66;5052794;28;20017;-48
2022/09/12 11:09:38;;;;;;;2.63;2.33;;;;;;;27.53;45.90;101345.22;5070505;28;20043;-51
2022/09/12 11:12:27;;;;;;;4.70;3.58;;;;;;;27.65;42.93;101345.38;5069742;28;20033;-49
2022/09/12 11:14:52;;;;;;;3.78;2.80;;;;;;;27.83;44.24;101342.72;5061286;28;20037;-48
2022/09/12 11:17:40;;;;;;;4.43;2.70;;;;;;;27.87;43.51;101341.22;5073369;28;20037;-48
2022/09/12 11:20:34;;;;;;;3.05;2.75;;;;;;;27.80;43.17;101345.06;5069712;28;20033;-48
2022/09/12 11:23:21;;;;;;;3.05;2.50;;;;;;;27.87;43.35;101334.94;5066784;28;20064;-48
2022/09/12 11:26:13;;;;;;;3.00;2.75;;;;;;;28.18;44.33;101336.00;5069703;28;20016;-49
2022/09/12 11:29:13;;;;;;;5.35;2.92;;;;;;;28.14;45.46;101324.66;5072742;28;20163;-48
2022/09/12 11:32:05;;;;;;;3.85;2.92;;;;;;;28.37;44.47;101326.78;5076337;28;20017;-47